sensor_id;sensor_type;location;lat;lon;timestamp;temperature;humidity
11639;DHT22;5875;35.940;126.892;2023-01-01T00:01:40;1.20;99.90
11639;DHT22;5875;35.940;126.892;2023-01-01T00:04:12;1.40;99.90
11639;DHT22;5875;35.940;126.892;2023-01-01T00:06:40;1.70;99.90
11639;DHT22;5875;35.940;126.892;2023-01-01T00:09:07;1.90;99.90
11639;DHT22;5875;35.940;126.892;2023-01-01T00:11:52;2.10;99.90
11639;DHT22;5875;35.940;126.892;2023-01-01T00:14:19;2.30;99.90
11639;DHT22;5875;35.940;126.892;2023-01-01T00:16:47;2.30;99.90
11639;DHT22;5875;35.940;126.892;2023-01-01T00:19:14;2.50;99.90
11639;DHT22;5875;35.940;126.892;2023-01-01T00:21:41;2.80;99.90
11639;DHT22;5875;35.940;126.892;2023-01-01T00:24:09;3.00;99.90
11639;DHT22;5875;35.940;126.892;2023-01-01T00:26:36;3.20;99.90
11639;DHT22;5875;35.940;126.892;2023-01-01T00:29:03;3.40;99.90
11639;DHT22;5875;35.940;126.892;2023-01-01T00:31:31;3.50;99.90
11639;DHT22;5875;35.940;126.892;2023-01-01T00:33:58;3.50;99.90
11639;DHT22;5875;35.940;126.892;2023-01-01T00:36:26;3.40;99.90
11639;DHT22;5875;35.940;126.892;2023-01-01T00:38:54;3.40;99.90
11639;DHT22;5875;35.940;126.892;2023-01-01T00:41:22;3.40;99.90
11639;DHT22;5875;35.940;126.892;2023-01-01T00:43:49;3.70;99.90
11639;DHT22;5875;35.940;126.892;2023-01-01T00:46:17;4.10;99.90
11639;DHT22;5875;35.940;126.892;2023-01-01T00:48:44;4.40;99.90
11639;DHT22;5875;35.940;126.892;2023-01-01T00:51:11;4.70;99.90
11639;DHT22;5875;35.940;126.892;2023-01-01T00:53:39;4.90;99.90
11639;DHT22;5875;35.940;126.892;2023-01-01T00:56:06;5.40;99.90
11639;DHT22;5875;35.940;126.892;2023-01-01T00:58:33;5.90;99.90
11639;DHT22;5875;35.940;126.892;2023-01-01T01:01:00;6.20;99.90
11639;DHT22;5875;35.940;126.892;2023-01-01T01:03:28;6.60;99.20
11639;DHT22;5875;35.940;126.892;2023-01-01T01:08:30;7.20;94.20
11639;DHT22;5875;35.940;126.892;2023-01-01T01:11:17;7.50;92.80
11639;DHT22;5875;35.940;126.892;2023-01-01T01:13:46;7.70;91.00
11639;DHT22;5875;35.940;126.892;2023-01-01T01:16:20;7.90;90.10
11639;DHT22;5875;35.940;126.892;2023-01-01T01:18:50;8.20;87.30
11639;DHT22;5875;35.940;126.892;2023-01-01T01:21:19;8.50;83.20
11639;DHT22;5875;35.940;126.892;2023-01-01T01:23:46;8.80;79.90
11639;DHT22;5875;35.940;126.892;2023-01-01T01:26:26;9.00;77.20
11639;DHT22;5875;35.940;126.892;2023-01-01T01:28:53;9.30;74.90
11639;DHT22;5875;35.940;126.892;2023-01-01T01:31:22;9.60;72.20
11639;DHT22;5875;35.940;126.892;2023-01-01T01:33:50;9.90;67.50
11639;DHT22;5875;35.940;126.892;2023-01-01T01:36:18;10.00;66.10
11639;DHT22;5875;35.940;126.892;2023-01-01T01:38:46;10.20;63.80
11639;DHT22;5875;35.940;126.892;2023-01-01T01:41:14;10.40;61.60
11639;DHT22;5875;35.940;126.892;2023-01-01T01:48:46;11.20;56.60
11639;DHT22;5875;35.940;126.892;2023-01-01T01:51:19;11.30;54.10
11639;DHT22;5875;35.940;126.892;2023-01-01T01:53:50;11.50;52.60
11639;DHT22;5875;35.940;126.892;2023-01-01T01:56:30;11.70;51.30
11639;DHT22;5875;35.940;126.892;2023-01-01T01:59:00;11.90;49.40
11639;DHT22;5875;35.940;126.892;2023-01-01T02:01:27;12.00;48.10
11639;DHT22;5875;35.940;126.892;2023-01-01T02:03:59;12.20;46.80
11639;DHT22;5875;35.940;126.892;2023-01-01T02:06:29;12.40;45.90
11639;DHT22;5875;35.940;126.892;2023-01-01T02:08:58;12.50;45.60
11639;DHT22;5875;35.940;126.892;2023-01-01T02:11:26;12.70;43.90
11639;DHT22;5875;35.940;126.892;2023-01-01T02:13:55;12.70;41.60
11639;DHT22;5875;35.940;126.892;2023-01-01T02:16:44;12.80;40.90
11639;DHT22;5875;35.940;126.892;2023-01-01T02:19:27;12.80;40.30
11639;DHT22;5875;35.940;126.892;2023-01-01T02:22:19;12.90;39.30
11639;DHT22;5875;35.940;126.892;2023-01-01T02:25:09;12.90;38.70
11639;DHT22;5875;35.940;126.892;2023-01-01T02:30:50;13.00;37.30
11639;DHT22;5875;35.940;126.892;2023-01-01T02:33:22;13.10;37.20
11639;DHT22;5875;35.940;126.892;2023-01-01T02:36:00;13.10;36.50
11639;DHT22;5875;35.940;126.892;2023-01-01T02:38:40;13.00;35.40
11639;DHT22;5875;35.940;126.892;2023-01-01T02:41:10;12.90;35.20
11639;DHT22;5875;35.940;126.892;2023-01-01T02:43:38;12.90;35.40
11639;DHT22;5875;35.940;126.892;2023-01-01T02:46:08;12.90;36.20
11639;DHT22;5875;35.940;126.892;2023-01-01T03:08:54;13.20;33.40
11639;DHT22;5875;35.940;126.892;2023-01-01T03:16:53;13.20;32.60
11639;DHT22;5875;35.940;126.892;2023-01-01T03:19:26;13.30;32.90
11639;DHT22;5875;35.940;126.892;2023-01-01T03:22:09;13.10;32.30
11639;DHT22;5875;35.940;126.892;2023-01-01T03:27:17;13.20;34.60
11639;DHT22;5875;35.940;126.892;2023-01-01T03:29:47;13.30;33.50
11639;DHT22;5875;35.940;126.892;2023-01-01T03:32:19;13.40;33.90
11639;DHT22;5875;35.940;126.892;2023-01-01T03:34:52;13.50;34.20
11639;DHT22;5875;35.940;126.892;2023-01-01T03:37:25;13.50;34.30
11639;DHT22;5875;35.940;126.892;2023-01-01T03:39:57;13.60;34.70
11639;DHT22;5875;35.940;126.892;2023-01-01T03:42:35;13.60;34.10
11639;DHT22;5875;35.940;126.892;2023-01-01T03:47:33;13.70;34.20
11639;DHT22;5875;35.940;126.892;2023-01-01T03:50:02;13.70;33.90
11639;DHT22;5875;35.940;126.892;2023-01-01T03:52:55;13.70;32.90
11639;DHT22;5875;35.940;126.892;2023-01-01T03:55:46;13.80;33.30
11639;DHT22;5875;35.940;126.892;2023-01-01T04:01:00;13.80;32.00
11639;DHT22;5875;35.940;126.892;2023-01-01T04:03:30;13.90;31.60
11639;DHT22;5875;35.940;126.892;2023-01-01T04:06:01;13.90;31.90
11639;DHT22;5875;35.940;126.892;2023-01-01T04:08:32;13.90;31.70
11639;DHT22;5875;35.940;126.892;2023-01-01T04:11:00;14.00;32.30
11639;DHT22;5875;35.940;126.892;2023-01-01T04:13:49;14.00;33.50
11639;DHT22;5875;35.940;126.892;2023-01-01T04:16:17;14.10;32.90
11639;DHT22;5875;35.940;126.892;2023-01-01T04:18:44;14.10;34.50
11639;DHT22;5875;35.940;126.892;2023-01-01T04:21:12;14.20;33.80
11639;DHT22;5875;35.940;126.892;2023-01-01T04:23:39;14.20;33.00
11639;DHT22;5875;35.940;126.892;2023-01-01T04:26:14;14.20;34.00
11639;DHT22;5875;35.940;126.892;2023-01-01T04:28:41;14.10;32.70
11639;DHT22;5875;35.940;126.892;2023-01-01T04:31:09;14.20;32.30
11639;DHT22;5875;35.940;126.892;2023-01-01T04:33:37;14.10;33.00
11639;DHT22;5875;35.940;126.892;2023-01-01T04:36:06;14.10;32.60
11639;DHT22;5875;35.940;126.892;2023-01-01T04:38:35;14.10;32.90
11639;DHT22;5875;35.940;126.892;2023-01-01T04:41:03;14.10;33.00
11639;DHT22;5875;35.940;126.892;2023-01-01T04:43:31;14.10;32.90
11639;DHT22;5875;35.940;126.892;2023-01-01T04:45:59;14.20;33.50
11639;DHT22;5875;35.940;126.892;2023-01-01T04:48:28;14.20;33.50
11639;DHT22;5875;35.940;126.892;2023-01-01T04:51:00;14.20;33.20
11639;DHT22;5875;35.940;126.892;2023-01-01T04:53:32;14.20;33.10
11639;DHT22;5875;35.940;126.892;2023-01-01T04:56:11;14.20;32.20
11639;DHT22;5875;35.940;126.892;2023-01-01T04:58:40;14.20;32.40
11639;DHT22;5875;35.940;126.892;2023-01-01T05:01:18;14.20;31.90
11639;DHT22;5875;35.940;126.892;2023-01-01T05:03:46;14.20;31.90
11639;DHT22;5875;35.940;126.892;2023-01-01T05:06:14;14.30;31.20
11639;DHT22;5875;35.940;126.892;2023-01-01T05:08:44;14.30;32.50
11639;DHT22;5875;35.940;126.892;2023-01-01T05:11:16;14.30;33.60
11639;DHT22;5875;35.940;126.892;2023-01-01T05:13:46;14.30;30.60
11639;DHT22;5875;35.940;126.892;2023-01-01T05:16:15;14.30;31.20
11639;DHT22;5875;35.940;126.892;2023-01-01T05:18:43;14.20;30.40
11639;DHT22;5875;35.940;126.892;2023-01-01T05:21:13;14.00;27.40
11639;DHT22;5875;35.940;126.892;2023-01-01T05:23:41;14.00;29.40
11639;DHT22;5875;35.940;126.892;2023-01-01T05:28:37;14.20;29.30
11639;DHT22;5875;35.940;126.892;2023-01-01T05:31:19;14.20;28.10
11639;DHT22;5875;35.940;126.892;2023-01-01T05:33:47;14.20;29.00
11639;DHT22;5875;35.940;126.892;2023-01-01T05:36:16;14.30;28.70
11639;DHT22;5875;35.940;126.892;2023-01-01T05:38:44;14.30;28.50
11639;DHT22;5875;35.940;126.892;2023-01-01T05:41:14;14.30;29.10
11639;DHT22;5875;35.940;126.892;2023-01-01T05:43:42;14.30;27.30
11639;DHT22;5875;35.940;126.892;2023-01-01T05:46:17;14.20;27.70
11639;DHT22;5875;35.940;126.892;2023-01-01T05:48:45;14.20;28.00
11639;DHT22;5875;35.940;126.892;2023-01-01T05:51:15;14.20;27.20
11639;DHT22;5875;35.940;126.892;2023-01-01T05:53:43;14.10;27.70
11639;DHT22;5875;35.940;126.892;2023-01-01T05:56:11;14.10;26.40
11639;DHT22;5875;35.940;126.892;2023-01-01T05:58:38;14.00;25.30
11639;DHT22;5875;35.940;126.892;2023-01-01T06:01:08;13.90;23.90
11639;DHT22;5875;35.940;126.892;2023-01-01T06:03:36;13.90;23.40
11639;DHT22;5875;35.940;126.892;2023-01-01T06:06:06;13.80;23.70
11639;DHT22;5875;35.940;126.892;2023-01-01T06:08:33;13.80;22.90
11639;DHT22;5875;35.940;126.892;2023-01-01T06:11:03;13.80;24.70
11639;DHT22;5875;35.940;126.892;2023-01-01T06:13:31;13.80;24.90
11639;DHT22;5875;35.940;126.892;2023-01-01T06:15:59;13.70;23.50
11639;DHT22;5875;35.940;126.892;2023-01-01T06:18:30;13.60;24.10
11639;DHT22;5875;35.940;126.892;2023-01-01T06:21:14;13.50;24.40
11639;DHT22;5875;35.940;126.892;2023-01-01T06:23:42;13.30;20.40
11639;DHT22;5875;35.940;126.892;2023-01-01T06:26:13;13.30;23.00
11639;DHT22;5875;35.940;126.892;2023-01-01T06:28:41;13.30;25.20
11639;DHT22;5875;35.940;126.892;2023-01-01T06:31:11;13.30;25.90
11639;DHT22;5875;35.940;126.892;2023-01-01T06:33:38;13.20;26.00
11639;DHT22;5875;35.940;126.892;2023-01-01T06:36:08;13.10;25.70
11639;DHT22;5875;35.940;126.892;2023-01-01T06:38:37;13.10;26.60
11639;DHT22;5875;35.940;126.892;2023-01-01T06:41:11;13.00;26.20
11639;DHT22;5875;35.940;126.892;2023-01-01T06:43:38;13.00;25.40
11639;DHT22;5875;35.940;126.892;2023-01-01T06:46:18;12.90;26.00
11639;DHT22;5875;35.940;126.892;2023-01-01T06:48:47;12.80;26.50
11639;DHT22;5875;35.940;126.892;2023-01-01T06:51:17;12.70;26.30
11639;DHT22;5875;35.940;126.892;2023-01-01T06:53:45;12.60;25.70
11639;DHT22;5875;35.940;126.892;2023-01-01T06:56:13;12.50;25.70
11639;DHT22;5875;35.940;126.892;2023-01-01T06:58:40;12.40;26.80
11639;DHT22;5875;35.940;126.892;2023-01-01T07:01:11;12.30;27.10
11639;DHT22;5875;35.940;126.892;2023-01-01T07:03:40;12.20;28.20
11639;DHT22;5875;35.940;126.892;2023-01-01T07:06:08;12.20;28.40
11639;DHT22;5875;35.940;126.892;2023-01-01T07:08:36;12.20;29.10
11639;DHT22;5875;35.940;126.892;2023-01-01T07:11:03;12.10;29.30
11639;DHT22;5875;35.940;126.892;2023-01-01T07:13:30;12.00;29.20
11639;DHT22;5875;35.940;126.892;2023-01-01T07:15:58;11.90;29.30
11639;DHT22;5875;35.940;126.892;2023-01-01T07:18:25;11.80;29.70
11639;DHT22;5875;35.940;126.892;2023-01-01T07:21:01;11.70;29.30
11639;DHT22;5875;35.940;126.892;2023-01-01T07:23:30;11.60;30.10
11639;DHT22;5875;35.940;126.892;2023-01-01T07:25:58;11.50;30.90
11639;DHT22;5875;35.940;126.892;2023-01-01T07:28:26;11.40;31.50
11639;DHT22;5875;35.940;126.892;2023-01-01T07:30:53;11.30;31.70
11639;DHT22;5875;35.940;126.892;2023-01-01T07:33:22;11.20;31.80
11639;DHT22;5875;35.940;126.892;2023-01-01T07:35:50;11.10;32.10
11639;DHT22;5875;35.940;126.892;2023-01-01T07:38:17;11.00;31.60
11639;DHT22;5875;35.940;126.892;2023-01-01T07:40:44;10.90;32.80
11639;DHT22;5875;35.940;126.892;2023-01-01T07:43:12;10.80;32.30
11639;DHT22;5875;35.940;126.892;2023-01-01T07:45:40;10.70;33.20
11639;DHT22;5875;35.940;126.892;2023-01-01T07:48:10;10.70;34.80
11639;DHT22;5875;35.940;126.892;2023-01-01T07:50:39;10.70;36.00
11639;DHT22;5875;35.940;126.892;2023-01-01T07:53:06;10.60;33.80
11639;DHT22;5875;35.940;126.892;2023-01-01T07:55:34;10.20;22.40
11639;DHT22;5875;35.940;126.892;2023-01-01T07:58:02;10.30;32.80
11639;DHT22;5875;35.940;126.892;2023-01-01T08:00:29;10.20;33.40
11639;DHT22;5875;35.940;126.892;2023-01-01T08:02:56;10.10;32.80
11639;DHT22;5875;35.940;126.892;2023-01-01T08:05:24;9.90;32.60
11639;DHT22;5875;35.940;126.892;2023-01-01T08:07:51;9.90;33.30
11639;DHT22;5875;35.940;126.892;2023-01-01T08:10:19;9.80;33.50
11639;DHT22;5875;35.940;126.892;2023-01-01T08:12:46;9.70;35.60
11639;DHT22;5875;35.940;126.892;2023-01-01T08:15:14;9.60;32.70
11639;DHT22;5875;35.940;126.892;2023-01-01T08:17:42;9.50;32.70
11639;DHT22;5875;35.940;126.892;2023-01-01T08:20:09;9.40;32.80
11639;DHT22;5875;35.940;126.892;2023-01-01T08:22:36;9.20;31.70
11639;DHT22;5875;35.940;126.892;2023-01-01T08:25:04;9.10;31.30
11639;DHT22;5875;35.940;126.892;2023-01-01T08:27:31;9.00;32.50
11639;DHT22;5875;35.940;126.892;2023-01-01T08:29:58;8.80;32.60
11639;DHT22;5875;35.940;126.892;2023-01-01T08:32:25;8.70;33.20
11639;DHT22;5875;35.940;126.892;2023-01-01T08:34:52;8.60;34.20
11639;DHT22;5875;35.940;126.892;2023-01-01T08:37:21;8.50;35.40
11639;DHT22;5875;35.940;126.892;2023-01-01T08:39:50;8.40;36.60
11639;DHT22;5875;35.940;126.892;2023-01-01T08:42:17;8.30;38.00
11639;DHT22;5875;35.940;126.892;2023-01-01T08:44:44;8.20;38.90
11639;DHT22;5875;35.940;126.892;2023-01-01T08:47:20;8.10;38.80
11639;DHT22;5875;35.940;126.892;2023-01-01T08:49:47;7.90;38.00
11639;DHT22;5875;35.940;126.892;2023-01-01T08:52:15;7.80;37.80
11639;DHT22;5875;35.940;126.892;2023-01-01T08:54:42;7.70;38.90
11639;DHT22;5875;35.940;126.892;2023-01-01T08:57:09;7.60;37.10
11639;DHT22;5875;35.940;126.892;2023-01-01T08:59:37;7.50;39.30
11639;DHT22;5875;35.940;126.892;2023-01-01T09:02:04;7.40;40.20
11639;DHT22;5875;35.940;126.892;2023-01-01T09:04:32;7.30;39.20
11639;DHT22;5875;35.940;126.892;2023-01-01T09:07:00;7.20;39.90
11639;DHT22;5875;35.940;126.892;2023-01-01T09:09:27;7.20;38.50
11639;DHT22;5875;35.940;126.892;2023-01-01T09:11:56;7.10;36.50
11639;DHT22;5875;35.940;126.892;2023-01-01T09:14:29;7.00;37.60
11639;DHT22;5875;35.940;126.892;2023-01-01T09:16:56;6.90;36.80
11639;DHT22;5875;35.940;126.892;2023-01-01T09:19:24;6.90;39.60
11639;DHT22;5875;35.940;126.892;2023-01-01T09:21:51;6.80;39.40
11639;DHT22;5875;35.940;126.892;2023-01-01T09:24:19;6.80;38.50
11639;DHT22;5875;35.940;126.892;2023-01-01T09:26:46;6.70;38.00
11639;DHT22;5875;35.940;126.892;2023-01-01T09:29:13;6.60;38.40
11639;DHT22;5875;35.940;126.892;2023-01-01T09:31:44;6.60;37.90
11639;DHT22;5875;35.940;126.892;2023-01-01T09:34:11;6.60;37.50
11639;DHT22;5875;35.940;126.892;2023-01-01T09:36:38;6.50;36.50
11639;DHT22;5875;35.940;126.892;2023-01-01T09:39:06;6.40;34.40
11639;DHT22;5875;35.940;126.892;2023-01-01T09:47:29;6.20;34.60
11639;DHT22;5875;35.940;126.892;2023-01-01T09:50:02;6.20;36.30
11639;DHT22;5875;35.940;126.892;2023-01-01T09:52:40;6.10;36.50
11639;DHT22;5875;35.940;126.892;2023-01-01T09:55:17;6.10;35.50
11639;DHT22;5875;35.940;126.892;2023-01-01T09:57:45;6.00;34.00
11639;DHT22;5875;35.940;126.892;2023-01-01T10:00:17;5.90;33.10
11639;DHT22;5875;35.940;126.892;2023-01-01T10:05:31;5.90;33.40
11639;DHT22;5875;35.940;126.892;2023-01-01T10:08:07;5.80;32.70
11639;DHT22;5875;35.940;126.892;2023-01-01T10:11:17;5.70;31.60
11639;DHT22;5875;35.940;126.892;2023-01-01T10:13:46;5.60;30.40
11639;DHT22;5875;35.940;126.892;2023-01-01T10:16:28;5.60;31.20
11639;DHT22;5875;35.940;126.892;2023-01-01T10:19:01;5.60;30.40
11639;DHT22;5875;35.940;126.892;2023-01-01T10:21:33;5.50;30.90
11639;DHT22;5875;35.940;126.892;2023-01-01T10:26:58;5.40;34.10
11639;DHT22;5875;35.940;126.892;2023-01-01T10:29:40;5.30;32.50
11639;DHT22;5875;35.940;126.892;2023-01-01T10:32:33;5.30;31.40
11639;DHT22;5875;35.940;126.892;2023-01-01T10:35:17;5.20;30.60
11639;DHT22;5875;35.940;126.892;2023-01-01T10:37:45;5.20;31.50
11639;DHT22;5875;35.940;126.892;2023-01-01T10:40:23;5.10;31.00
11639;DHT22;5875;35.940;126.892;2023-01-01T10:42:57;5.10;31.00
11639;DHT22;5875;35.940;126.892;2023-01-01T10:45:31;5.10;30.50
11639;DHT22;5875;35.940;126.892;2023-01-01T10:48:15;5.00;31.90
11639;DHT22;5875;35.940;126.892;2023-01-01T10:50:55;5.00;31.90
11639;DHT22;5875;35.940;126.892;2023-01-01T10:53:37;5.00;31.80
11639;DHT22;5875;35.940;126.892;2023-01-01T10:56:18;4.90;31.70
11639;DHT22;5875;35.940;126.892;2023-01-01T10:58:54;4.90;31.50
11639;DHT22;5875;35.940;126.892;2023-01-01T11:01:28;4.80;32.00
11639;DHT22;5875;35.940;126.892;2023-01-01T11:04:08;4.80;32.90
11639;DHT22;5875;35.940;126.892;2023-01-01T11:06:44;4.80;33.90
11639;DHT22;5875;35.940;126.892;2023-01-01T11:12:07;4.70;35.10
11639;DHT22;5875;35.940;126.892;2023-01-01T11:14:50;4.70;34.20
11639;DHT22;5875;35.940;126.892;2023-01-01T11:17:26;4.60;33.60
11639;DHT22;5875;35.940;126.892;2023-01-01T11:19:56;4.60;33.90
11639;DHT22;5875;35.940;126.892;2023-01-01T11:22:42;4.50;34.60
11639;DHT22;5875;35.940;126.892;2023-01-01T11:25:24;4.50;34.70
11639;DHT22;5875;35.940;126.892;2023-01-01T11:30:46;4.40;34.70
11639;DHT22;5875;35.940;126.892;2023-01-01T11:33:23;4.30;37.70
11639;DHT22;5875;35.940;126.892;2023-01-01T11:35:54;4.30;37.50
11639;DHT22;5875;35.940;126.892;2023-01-01T11:38:23;4.30;37.60
11639;DHT22;5875;35.940;126.892;2023-01-01T11:40:55;4.20;37.60
11639;DHT22;5875;35.940;126.892;2023-01-01T11:43:27;4.10;38.10
11639;DHT22;5875;35.940;126.892;2023-01-01T11:45:57;4.10;40.10
11639;DHT22;5875;35.940;126.892;2023-01-01T11:48:31;4.00;36.70
11639;DHT22;5875;35.940;126.892;2023-01-01T11:51:01;4.00;39.20
11639;DHT22;5875;35.940;126.892;2023-01-01T11:56:22;3.90;38.60
11639;DHT22;5875;35.940;126.892;2023-01-01T11:58:58;4.00;43.50
11639;DHT22;5875;35.940;126.892;2023-01-01T12:01:51;3.90;39.60
11639;DHT22;5875;35.940;126.892;2023-01-01T12:04:20;3.90;39.70
11639;DHT22;5875;35.940;126.892;2023-01-01T12:06:57;3.90;40.70
11639;DHT22;5875;35.940;126.892;2023-01-01T12:09:57;3.80;40.00
11639;DHT22;5875;35.940;126.892;2023-01-01T12:12:45;3.80;41.70
11639;DHT22;5875;35.940;126.892;2023-01-01T12:15:40;3.70;40.00
11639;DHT22;5875;35.940;126.892;2023-01-01T12:18:27;3.70;40.00
11639;DHT22;5875;35.940;126.892;2023-01-01T12:21:18;3.70;42.00
11639;DHT22;5875;35.940;126.892;2023-01-01T12:23:49;3.70;41.90
11639;DHT22;5875;35.940;126.892;2023-01-01T12:26:43;3.60;42.50
11639;DHT22;5875;35.940;126.892;2023-01-01T12:41:12;3.30;44.50
11639;DHT22;5875;35.940;126.892;2023-01-01T12:43:44;3.30;45.40
11639;DHT22;5875;35.940;126.892;2023-01-01T12:46:25;3.20;46.70
11639;DHT22;5875;35.940;126.892;2023-01-01T12:57:55;3.00;47.00
11639;DHT22;5875;35.940;126.892;2023-01-01T13:00:16;3.10;48.80
11639;DHT22;5875;35.940;126.892;2023-01-01T13:03:05;3.00;50.50
11639;DHT22;5875;35.940;126.892;2023-01-01T13:05:43;3.00;50.40
11639;DHT22;5875;35.940;126.892;2023-01-01T13:08:11;3.00;51.30
11639;DHT22;5875;35.940;126.892;2023-01-01T13:10:43;3.00;50.00
11639;DHT22;5875;35.940;126.892;2023-01-01T13:13:14;2.90;51.00
11639;DHT22;5875;35.940;126.892;2023-01-01T13:15:43;2.90;52.20
11639;DHT22;5875;35.940;126.892;2023-01-01T13:20:43;2.80;49.50
11639;DHT22;5875;35.940;126.892;2023-01-01T13:39:56;2.40;53.50
11639;DHT22;5875;35.940;126.892;2023-01-01T13:42:45;2.40;53.90
11639;DHT22;5875;35.940;126.892;2023-01-01T13:45:42;2.40;55.40
11639;DHT22;5875;35.940;126.892;2023-01-01T13:59:59;2.30;55.40
11639;DHT22;5875;35.940;126.892;2023-01-01T14:02:35;2.20;57.30
11639;DHT22;5875;35.940;126.892;2023-01-01T14:05:14;2.20;56.60
11639;DHT22;5875;35.940;126.892;2023-01-01T14:07:49;2.20;58.20
11639;DHT22;5875;35.940;126.892;2023-01-01T14:10:19;2.20;59.40
11639;DHT22;5875;35.940;126.892;2023-01-01T14:12:47;2.10;59.50
11639;DHT22;5875;35.940;126.892;2023-01-01T14:18:14;2.10;61.70
11639;DHT22;5875;35.940;126.892;2023-01-01T14:20:59;2.10;61.30
11639;DHT22;5875;35.940;126.892;2023-01-01T14:23:33;2.00;61.70
11639;DHT22;5875;35.940;126.892;2023-01-01T14:26:05;2.00;60.30
11639;DHT22;5875;35.940;126.892;2023-01-01T14:28:34;2.00;61.70
11639;DHT22;5875;35.940;126.892;2023-01-01T14:31:13;2.00;62.40
11639;DHT22;5875;35.940;126.892;2023-01-01T14:33:40;2.00;62.60
11639;DHT22;5875;35.940;126.892;2023-01-01T14:38:49;1.90;62.90
11639;DHT22;5875;35.940;126.892;2023-01-01T14:41:38;1.80;60.50
11639;DHT22;5875;35.940;126.892;2023-01-01T14:44:10;1.80;61.10
11639;DHT22;5875;35.940;126.892;2023-01-01T14:46:47;1.70;60.60
11639;DHT22;5875;35.940;126.892;2023-01-01T14:49:35;1.70;62.40
11639;DHT22;5875;35.940;126.892;2023-01-01T14:52:12;1.80;62.80
11639;DHT22;5875;35.940;126.892;2023-01-01T14:54:43;1.70;65.70
11639;DHT22;5875;35.940;126.892;2023-01-01T14:57:15;1.70;66.60
11639;DHT22;5875;35.940;126.892;2023-01-01T14:59:49;1.70;66.60
11639;DHT22;5875;35.940;126.892;2023-01-01T15:02:36;1.70;67.20
11639;DHT22;5875;35.940;126.892;2023-01-01T15:05:27;1.60;65.30
11639;DHT22;5875;35.940;126.892;2023-01-01T15:07:57;1.60;64.80
11639;DHT22;5875;35.940;126.892;2023-01-01T15:10:26;1.60;65.50
11639;DHT22;5875;35.940;126.892;2023-01-01T15:12:54;1.60;64.90
11639;DHT22;5875;35.940;126.892;2023-01-01T15:15:35;1.60;66.20
11639;DHT22;5875;35.940;126.892;2023-01-01T15:18:03;1.60;66.70
11639;DHT22;5875;35.940;126.892;2023-01-01T15:20:30;1.60;67.20
11639;DHT22;5875;35.940;126.892;2023-01-01T15:22:58;1.50;66.60
11639;DHT22;5875;35.940;126.892;2023-01-01T15:25:25;1.50;66.60
11639;DHT22;5875;35.940;126.892;2023-01-01T15:27:53;1.50;67.60
11639;DHT22;5875;35.940;126.892;2023-01-01T15:30:27;1.50;67.20
11639;DHT22;5875;35.940;126.892;2023-01-01T15:33:04;1.50;68.10
11639;DHT22;5875;35.940;126.892;2023-01-01T15:35:32;1.50;66.90
11639;DHT22;5875;35.940;126.892;2023-01-01T15:38:09;1.50;65.30
11639;DHT22;5875;35.940;126.892;2023-01-01T15:40:38;1.50;64.90
11639;DHT22;5875;35.940;126.892;2023-01-01T15:43:17;1.50;65.90
11639;DHT22;5875;35.940;126.892;2023-01-01T15:45:54;1.50;66.60
11639;DHT22;5875;35.940;126.892;2023-01-01T15:48:35;1.50;66.90
11639;DHT22;5875;35.940;126.892;2023-01-01T15:51:23;1.50;69.90
11639;DHT22;5875;35.940;126.892;2023-01-01T15:53:59;1.40;72.60
11639;DHT22;5875;35.940;126.892;2023-01-01T15:56:30;1.40;74.70
11639;DHT22;5875;35.940;126.892;2023-01-01T15:59:06;1.30;76.20
11639;DHT22;5875;35.940;126.892;2023-01-01T16:01:40;1.30;77.70
11639;DHT22;5875;35.940;126.892;2023-01-01T16:06:45;1.30;79.40
11639;DHT22;5875;35.940;126.892;2023-01-01T16:09:14;1.30;78.50
11639;DHT22;5875;35.940;126.892;2023-01-01T16:11:42;1.30;80.20
11639;DHT22;5875;35.940;126.892;2023-01-01T16:14:09;1.30;80.00
11639;DHT22;5875;35.940;126.892;2023-01-01T16:16:38;1.20;80.50
11639;DHT22;5875;35.940;126.892;2023-01-01T16:19:08;1.20;80.70
11639;DHT22;5875;35.940;126.892;2023-01-01T16:21:36;1.20;81.20
11639;DHT22;5875;35.940;126.892;2023-01-01T16:24:04;1.20;82.00
11639;DHT22;5875;35.940;126.892;2023-01-01T16:26:32;1.20;81.30
11639;DHT22;5875;35.940;126.892;2023-01-01T16:28:59;1.20;82.00
11639;DHT22;5875;35.940;126.892;2023-01-01T16:31:27;1.30;83.00
11639;DHT22;5875;35.940;126.892;2023-01-01T16:33:55;1.30;83.70
11639;DHT22;5875;35.940;126.892;2023-01-01T16:36:24;1.30;84.60
11639;DHT22;5875;35.940;126.892;2023-01-01T16:38:53;1.20;85.30
11639;DHT22;5875;35.940;126.892;2023-01-01T16:41:21;1.20;85.30
11639;DHT22;5875;35.940;126.892;2023-01-01T16:43:49;1.20;85.40
11639;DHT22;5875;35.940;126.892;2023-01-01T16:46:16;1.20;86.00
11639;DHT22;5875;35.940;126.892;2023-01-01T16:48:43;1.20;85.10
11639;DHT22;5875;35.940;126.892;2023-01-01T16:51:19;1.20;84.60
11639;DHT22;5875;35.940;126.892;2023-01-01T16:53:47;1.20;84.30
11639;DHT22;5875;35.940;126.892;2023-01-01T16:56:15;1.20;84.60
11639;DHT22;5875;35.940;126.892;2023-01-01T16:58:42;1.20;84.30
11639;DHT22;5875;35.940;126.892;2023-01-01T17:01:09;1.10;83.90
11639;DHT22;5875;35.940;126.892;2023-01-01T17:03:37;1.10;84.10
11639;DHT22;5875;35.940;126.892;2023-01-01T17:06:06;1.10;84.10
11639;DHT22;5875;35.940;126.892;2023-01-01T17:08:34;1.10;84.10
11639;DHT22;5875;35.940;126.892;2023-01-01T17:11:04;1.10;84.20
11639;DHT22;5875;35.940;126.892;2023-01-01T17:13:33;1.10;83.30
11639;DHT22;5875;35.940;126.892;2023-01-01T17:16:01;1.10;83.60
11639;DHT22;5875;35.940;126.892;2023-01-01T17:18:29;1.00;82.70
11639;DHT22;5875;35.940;126.892;2023-01-01T17:21:05;1.00;81.50
11639;DHT22;5875;35.940;126.892;2023-01-01T17:23:37;1.00;81.20
11639;DHT22;5875;35.940;126.892;2023-01-01T17:26:07;1.00;82.00
11639;DHT22;5875;35.940;126.892;2023-01-01T17:28:35;0.90;83.70
11639;DHT22;5875;35.940;126.892;2023-01-01T17:31:07;0.90;84.80
11639;DHT22;5875;35.940;126.892;2023-01-01T17:33:34;0.90;85.10
11639;DHT22;5875;35.940;126.892;2023-01-01T17:36:01;0.90;85.60
11639;DHT22;5875;35.940;126.892;2023-01-01T17:38:29;0.80;85.50
11639;DHT22;5875;35.940;126.892;2023-01-01T17:43:37;0.80;89.30
11639;DHT22;5875;35.940;126.892;2023-01-01T17:46:09;0.80;90.10
11639;DHT22;5875;35.940;126.892;2023-01-01T17:48:38;0.80;90.50
11639;DHT22;5875;35.940;126.892;2023-01-01T17:51:06;0.70;90.90
11639;DHT22;5875;35.940;126.892;2023-01-01T17:53:33;0.70;90.70
11639;DHT22;5875;35.940;126.892;2023-01-01T17:56:00;0.70;90.90
11639;DHT22;5875;35.940;126.892;2023-01-01T17:58:29;0.70;91.30
11639;DHT22;5875;35.940;126.892;2023-01-01T18:01:30;0.70;91.20
11639;DHT22;5875;35.940;126.892;2023-01-01T18:04:06;0.70;91.20